Time,TemperatureF,DewpointF,PressureIn,WindDirection,WindDirectionDegrees,WindSpeedMPH,WindSpeedGustMPH,Humidity,HourlyPrecipIn,Conditions,Clouds,dailyrainin,SoftwareType,DateUTC
2013-03-08 00:07:00,43.0,41.9,30.10,West,270,0.0,-999.0,96,-99.99,,,0.00,Acu-Link.com,2013-03-08 06:07:00,
2013-03-08 00:23:00,42.8,41.7,30.13,NNE,22,0.0,-999.0,96,-99.99,,,0.00,Acu-Link.com,2013-03-08 06:23:00,
2013-03-08 00:38:00,42.1,41.0,30.12,SW,225,0.0,-999.0,96,-99.99,,,0.00,Acu-Link.com,2013-03-08 06:38:00,
2013-03-08 00:53:00,41.9,41.4,30.12,East,90,0.0,-999.0,98,-99.99,,,0.00,Acu-Link.com,2013-03-08 06:53:00,
2013-03-08 01:08:00,41.9,41.4,30.11,WSW,247,0.0,-999.0,98,-99.99,,,0.00,Acu-Link.com,2013-03-08 07:08:00,
2013-03-08 01:23:00,41.7,41.2,30.08,ESE,112,0.0,-999.0,98,-99.99,,,0.00,Acu-Link.com,2013-03-08 07:23:00,
2013-03-08 01:38:00,41.2,40.7,30.08,West,270,0.0,-999.0,98,-99.99,,,0.00,Acu-Link.com,2013-03-08 07:38:00,
2013-03-08 01:54:00,41.0,40.5,30.12,West,270,0.0,-999.0,98,-99.99,,,0.00,Acu-Link.com,2013-03-08 07:54:00,
2013-03-08 02:09:00,41.0,40.5,30.12,NNE,22,0.0,-999.0,98,-99.99,,,0.00,Acu-Link.com,2013-03-08 08:09:00,
2013-03-08 02:24:00,40.8,40.3,30.12,WNW,292,0.0,-999.0,98,-99.99,,,0.00,Acu-Link.com,2013-03-08 08:24:00,
2013-03-08 02:39:00,40.5,40.0,30.08,WNW,292,0.0,-999.0,98,-99.99,,,0.00,Acu-Link.com,2013-03-08 08:39:00,
2013-03-08 02:54:00,40.5,40.0,30.12,WNW,292,0.0,-999.0,98,-99.99,,,0.00,Acu-Link.com,2013-03-08 08:54:00,
2013-03-08 03:09:00,40.5,40.0,30.12,NNW,337,0.0,-999.0,98,-99.99,,,0.00,Acu-Link.com,2013-03-08 09:09:00,
2013-03-08 03:24:00,40.3,39.8,30.11,NE,45,0.0,-999.0,98,-99.99,,,0.00,Acu-Link.com,2013-03-08 09:24:00,
2013-03-08 03:39:00,40.3,39.8,30.11,NNW,337,0.0,-999.0,98,-99.99,,,0.00,Acu-Link.com,2013-03-08 09:39:00,
2013-03-08 03:54:00,40.1,39.6,30.11,NE,45,0.0,-999.0,98,-99.99,,,0.00,Acu-Link.com,2013-03-08 09:54:00,
2013-03-08 04:10:00,39.9,39.4,30.09,WNW,292,0.0,-999.0,98,-99.99,,,0.00,Acu-Link.com,2013-03-08 10:10:00,
2013-03-08 04:25:00,39.7,39.2,30.11,WNW,292,0.0,-999.0,98,-99.99,,,0.00,Acu-Link.com,2013-03-08 10:25:00,
2013-03-08 04:40:00,39.9,39.4,30.10,NNE,22,0.0,-999.0,98,-99.99,,,0.00,Acu-Link.com,2013-03-08 10:40:00,
2013-03-08 04:55:00,39.7,39.2,30.13,North,0,0.0,-999.0,98,-99.99,,,0.00,Acu-Link.com,2013-03-08 10:55:00,
2013-03-08 05:10:00,39.4,38.9,30.11,NE,45,0.0,-999.0,98,-99.99,,,0.00,Acu-Link.com,2013-03-08 11:10:00,
2013-03-08 05:25:00,39.6,39.1,30.13,NW,315,0.0,-999.0,98,-99.99,,,0.00,Acu-Link.com,2013-03-08 11:25:00,
2013-03-08 05:40:00,39.4,38.9,30.10,East,90,0.0,-999.0,98,-99.99,,,0.00,Acu-Link.com,2013-03-08 11:40:00,
2013-03-08 05:56:00,39.2,38.7,30.14,East,90,0.0,-999.0,98,-99.99,,,0.00,Acu-Link.com,2013-03-08 11:56:00,
2013-03-08 06:11:00,39.0,38.5,30.12,East,90,0.0,-999.0,98,-99.99,,,0.00,Acu-Link.com,2013-03-08 12:11:00,
2013-03-08 06:26:00,38.3,37.8,30.14,East,90,0.0,-999.0,98,-99.99,,,0.00,Acu-Link.com,2013-03-08 12:26:00,
2013-03-08 06:41:00,38.7,38.2,30.13,NNE,22,0.0,-999.0,98,-99.99,,,0.00,Acu-Link.com,2013-03-08 12:41:00,
2013-03-08 06:56:00,39.6,39.1,30.15,ESE,112,0.0,-999.0,98,-99.99,,,0.00,Acu-Link.com,2013-03-08 12:56:00,
2013-03-08 07:11:00,42.6,42.1,30.14,NE,45,0.0,-999.0,98,-99.99,,,0.00,Acu-Link.com,2013-03-08 13:11:00,
2013-03-08 07:26:00,46.0,45.5,30.15,ENE,67,2.2,-999.0,98,-99.99,,,0.00,Acu-Link.com,2013-03-08 13:26:00,
2013-03-08 07:41:00,49.5,47.6,30.18,ENE,67,2.7,-999.0,93,-99.99,,,0.00,Acu-Link.com,2013-03-08 13:41:00,
2013-03-08 07:56:00,52.3,48.9,30.18,ESE,112,1.7,-999.0,88,-99.99,,,0.00,Acu-Link.com,2013-03-08 13:56:00,
2013-03-08 08:12:00,54.5,49.8,30.16,ESE,112,3.7,-999.0,84,-99.99,,,0.00,Acu-Link.com,2013-03-08 14:12:00,
2013-03-08 08:27:00,54.5,50.7,30.18,North,0,2.2,-999.0,87,-99.99,,,0.00,Acu-Link.com,2013-03-08 14:27:00,
2013-03-08 08:42:00,55.6,51.5,30.18,NE,45,2.2,-999.0,86,-99.99,,,0.00,Acu-Link.com,2013-03-08 14:42:00,
2013-03-08 08:57:00,56.3,52.2,30.15,WSW,247,1.7,-999.0,86,-99.99,,,0.00,Acu-Link.com,2013-03-08 14:57:00,
2013-03-08 09:12:00,57.9,52.4,30.18,ESE,112,3.2,-999.0,82,-99.99,,,0.00,Acu-Link.com,2013-03-08 15:12:00,
2013-03-08 09:32:00,59.4,53.6,30.15,ESE,112,2.7,-999.0,81,-99.99,,,0.00,Acu-Link.com,2013-03-08 15:32:00,
2013-03-08 09:47:00,60.3,50.9,30.19,NNE,22,3.2,-999.0,71,-99.99,,,0.00,Acu-Link.com,2013-03-08 15:47:00,
2013-03-08 10:02:00,62.4,52.5,30.19,East,90,4.7,-999.0,70,-99.99,,,0.00,Acu-Link.com,2013-03-08 16:02:00,
2013-03-08 10:17:00,63.3,51.3,30.18,NNW,337,2.7,-999.0,65,-99.99,,,0.00,Acu-Link.com,2013-03-08 16:17:00,
2013-03-08 10:32:00,63.9,51.5,30.18,East,90,3.7,-999.0,64,-99.99,,,0.00,Acu-Link.com,2013-03-08 16:32:00,
2013-03-08 10:47:00,64.2,50.9,30.18,SE,135,1.7,-999.0,62,-99.99,,,0.00,Acu-Link.com,2013-03-08 16:47:00,
2013-03-08 11:02:00,66.9,51.6,30.17,SSE,157,3.7,-999.0,58,-99.99,,,0.00,Acu-Link.com,2013-03-08 17:02:00,
2013-03-08 11:18:00,66.2,50.5,30.17,South,180,2.2,-999.0,57,-99.99,,,0.00,Acu-Link.com,2013-03-08 17:18:00,
2013-03-08 11:33:00,68.2,49.9,30.18,East,90,4.7,-999.0,52,-99.99,,,0.00,Acu-Link.com,2013-03-08 17:33:00,
2013-03-08 11:50:00,69.1,51.2,30.13,ESE,112,2.7,-999.0,53,-99.99,,,0.00,Acu-Link.com,2013-03-08 17:50:00,
2013-03-08 12:05:00,69.3,50.9,30.12,SE,135,3.7,-999.0,52,-99.99,,,0.00,Acu-Link.com,2013-03-08 18:05:00,
2013-03-08 12:20:00,70.3,51.3,30.15,SSE,157,5.3,-999.0,51,-99.99,,,0.00,Acu-Link.com,2013-03-08 18:20:00,
2013-03-08 12:36:00,70.3,50.8,30.10,ESE,112,3.7,-999.0,50,-99.99,,,0.00,Acu-Link.com,2013-03-08 18:36:00,
2013-03-08 12:51:00,71.1,51.5,30.12,South,180,1.7,-999.0,50,-99.99,,,0.00,Acu-Link.com,2013-03-08 18:51:00,
2013-03-08 13:06:00,70.3,50.2,30.07,South,180,1.1,-999.0,49,-99.99,,,0.00,Acu-Link.com,2013-03-08 19:06:00,
2013-03-08 13:21:00,71.6,50.3,30.08,ESE,112,3.2,-999.0,47,-99.99,,,0.00,Acu-Link.com,2013-03-08 19:21:00,
2013-03-08 13:36:00,72.0,48.9,30.08,ENE,67,4.2,-999.0,44,-99.99,,,0.00,Acu-Link.com,2013-03-08 19:36:00,
2013-03-08 13:51:00,70.9,47.9,30.09,ESE,112,0.0,-999.0,44,-99.99,,,0.00,Acu-Link.com,2013-03-08 19:51:00,
2013-03-08 14:06:00,73.2,48.7,30.05,WSW,247,2.7,-999.0,42,-99.99,,,0.00,Acu-Link.com,2013-03-08 20:06:00,
2013-03-08 14:21:00,74.1,48.2,30.08,SSW,202,2.7,-999.0,40,-99.99,,,0.00,Acu-Link.com,2013-03-08 20:21:00,
2013-03-08 14:36:00,73.9,47.4,30.08,West,270,3.7,-999.0,39,-99.99,,,0.00,Acu-Link.com,2013-03-08 20:36:00,
2013-03-08 14:52:00,73.6,47.8,30.07,NE,45,1.7,-999.0,40,-99.99,,,0.00,Acu-Link.com,2013-03-08 20:52:00,
2013-03-08 15:07:00,74.3,46.3,30.06,ESE,112,9.9,-999.0,37,-99.99,,,0.00,Acu-Link.com,2013-03-08 21:07:00,
2013-03-08 15:22:00,73.0,46.6,30.07,SE,135,2.7,-999.0,39,-99.99,,,0.00,Acu-Link.com,2013-03-08 21:22:00,
2013-03-08 15:37:00,72.0,45.0,30.08,East,90,1.7,-999.0,38,-99.99,,,0.00,Acu-Link.com,2013-03-08 21:37:00,
2013-03-08 15:52:00,70.7,43.8,30.05,ESE,112,4.2,-999.0,38,-99.99,,,0.00,Acu-Link.com,2013-03-08 21:52:00,
2013-03-08 16:07:00,70.7,45.2,30.06,ESE,112,3.7,-999.0,40,-99.99,,,0.00,Acu-Link.com,2013-03-08 22:07:00,
2013-03-08 16:22:00,69.6,45.5,30.01,ESE,112,4.2,-999.0,42,-99.99,,,0.00,Acu-Link.com,2013-03-08 22:22:00,
2013-03-08 16:37:00,69.4,45.3,30.01,ESE,112,3.2,-999.0,42,-99.99,,,0.00,Acu-Link.com,2013-03-08 22:37:00,
2013-03-08 16:52:00,68.7,42.7,30.05,ESE,112,4.2,-999.0,39,-99.99,,,0.00,Acu-Link.com,2013-03-08 22:52:00,
2013-03-08 17:08:00,68.0,42.1,30.04,ESE,112,3.7,-999.0,39,-99.99,,,0.00,Acu-Link.com,2013-03-08 23:08:00,
2013-03-08 17:23:00,67.1,43.2,30.05,ESE,112,3.2,-999.0,42,-99.99,,,0.00,Acu-Link.com,2013-03-08 23:23:00,
2013-03-08 17:38:00,66.6,42.2,30.01,ESE,112,3.2,-999.0,41,-99.99,,,0.00,Acu-Link.com,2013-03-08 23:38:00,
2013-03-08 17:53:00,65.8,42.7,30.02,ENE,67,0.0,-999.0,43,-99.99,,,0.00,Acu-Link.com,2013-03-08 23:53:00,
2013-03-08 18:08:00,64.9,42.5,30.04,East,90,2.2,-999.0,44,-99.99,,,0.00,Acu-Link.com,2013-03-09 00:08:00,
2013-03-08 18:23:00,64.0,42.8,30.03,ESE,112,3.2,-999.0,46,-99.99,,,0.00,Acu-Link.com,2013-03-09 00:23:00,
2013-03-08 18:38:00,62.8,43.4,30.03,ESE,112,0.0,-999.0,49,-99.99,,,0.00,Acu-Link.com,2013-03-09 00:38:00,
2013-03-08 18:54:00,61.0,43.2,30.03,West,270,0.0,-999.0,52,-99.99,,,0.00,Acu-Link.com,2013-03-09 00:54:00,
2013-03-08 19:09:00,59.5,43.8,30.05,SSW,202,0.0,-999.0,56,-99.99,,,0.00,Acu-Link.com,2013-03-09 01:09:00,
2013-03-08 19:24:00,58.8,44.1,30.03,NNW,337,0.0,-999.0,58,-99.99,,,0.00,Acu-Link.com,2013-03-09 01:24:00,
2013-03-08 19:39:00,57.9,44.5,30.06,SW,225,0.0,-999.0,61,-99.99,,,0.00,Acu-Link.com,2013-03-09 01:39:00,
2013-03-08 19:54:00,57.6,44.7,30.04,East,90,0.0,-999.0,62,-99.99,,,0.00,Acu-Link.com,2013-03-09 01:54:00,
2013-03-08 20:09:00,57.6,45.5,30.04,ENE,67,0.0,-999.0,64,-99.99,,,0.00,Acu-Link.com,2013-03-09 02:09:00,
2013-03-08 20:24:00,57.2,45.5,30.04,WSW,247,0.0,-999.0,65,-99.99,,,0.00,Acu-Link.com,2013-03-09 02:24:00,
2013-03-08 20:39:00,57.0,46.2,30.07,East,90,0.0,-999.0,67,-99.99,,,0.00,Acu-Link.com,2013-03-09 02:39:00,
2013-03-08 20:54:00,57.0,46.9,30.04,ESE,112,0.0,-999.0,69,-99.99,,,0.00,Acu-Link.com,2013-03-09 02:54:00,
2013-03-08 21:10:00,57.2,47.9,30.05,East,90,0.0,-999.0,71,-99.99,,,0.00,Acu-Link.com,2013-03-09 03:10:00,
2013-03-08 21:25:00,57.4,49.2,30.08,SSE,157,0.0,-999.0,74,-99.99,,,0.00,Acu-Link.com,2013-03-09 03:25:00,
2013-03-08 21:40:00,57.6,50.1,30.08,SSE,157,0.0,-999.0,76,-99.99,,,0.00,Acu-Link.com,2013-03-09 03:40:00,
2013-03-08 21:55:00,57.2,50.4,30.07,East,90,0.0,-999.0,78,-99.99,,,0.00,Acu-Link.com,2013-03-09 03:55:00,
2013-03-08 22:10:00,57.0,50.6,30.03,East,90,0.0,-999.0,79,-99.99,,,0.00,Acu-Link.com,2013-03-09 04:10:00,
2013-03-08 22:25:00,57.0,51.2,30.04,East,90,0.0,-999.0,81,-99.99,,,0.00,Acu-Link.com,2013-03-09 04:25:00,
2013-03-08 22:41:00,57.6,52.1,30.08,SSE,157,0.0,-999.0,82,-99.99,,,0.00,Acu-Link.com,2013-03-09 04:41:00,
2013-03-08 22:56:00,57.0,51.9,30.03,SSW,202,0.0,-999.0,83,-99.99,,,0.00,Acu-Link.com,2013-03-09 04:56:00,
2013-03-08 23:11:00,56.5,52.0,30.06,WSW,247,0.0,-999.0,85,-99.99,,,0.00,Acu-Link.com,2013-03-09 05:11:00,
2013-03-08 23:26:00,56.3,52.5,30.04,East,90,0.0,-999.0,87,-99.99,,,0.00,Acu-Link.com,2013-03-09 05:26:00,
2013-03-08 23:41:00,57.2,53.7,29.99,ESE,112,1.7,-999.0,88,-99.99,,,0.00,Acu-Link.com,2013-03-09 05:41:00,
2013-03-08 23:56:00,57.4,53.9,30.02,ESE,112,2.7,-999.0,88,-99.99,,,0.00,Acu-Link.com,2013-03-09 05:56:00,